Time;durP1;ratioP1;P1;durP2;ratioP2;P2;SDS_P1;SDS_P2;PMS_P1;PMS_P2;Temp;Humidity;BMP_temperature;BMP_pressure;BME280_temperature;BME280_humidity;BME280_pressure;Samples;Min_cycle;Max_cycle;Signal;HPM_P1;HPM_P2
2021/08/25 00:00:28;;;;;;;4.25;1.80;;;15.80;70.30;;;;;;2051983;28;20086;-96
2021/08/25 00:01:29;;;;;;;4.38;2.33;;;15.80;70.40;;;;;;2067523;28;20121;-95
2021/08/25 00:02:32;;;;;;;4.05;1.90;;;15.80;70.50;;;;;;2044022;28;20144;-95
2021/08/25 00:03:33;;;;;;;3.88;1.88;;;15.80;70.50;;;;;;2046146;29;20121;-95
2021/08/25 00:04:34;;;;;;;5.15;2.10;;;15.80;70.50;;;;;;2042723;29;20549;-95
2021/08/25 00:05:34;;;;;;;3.58;1.85;;;15.80;70.60;;;;;;2034463;29;20036;-96
2021/08/25 00:06:35;;;;;;;3.92;2.15;;;15.80;70.70;;;;;;2032904;29;20032;-95
2021/08/25 00:07:36;;;;;;;3.20;2.00;;;15.80;70.80;;;;;;2041535;29;20038;-95
2021/08/25 00:08:37;;;;;;;4.43;2.08;;;15.70;70.80;;;;;;2049073;28;20086;-95
2021/08/25 00:09:40;;;;;;;3.97;2.20;;;15.80;70.90;;;;;;2041234;29;20574;-95
2021/08/25 00:10:41;;;;;;;3.63;2.10;;;15.80;71.00;;;;;;2034795;28;20044;-95
2021/08/25 00:11:42;;;;;;;3.45;1.98;;;15.70;70.90;;;;;;2049722;28;20566;-96
2021/08/25 00:12:43;;;;;;;3.72;2.03;;;15.80;71.10;;;;;;2041071;29;20425;-95
2021/08/25 00:13:43;;;;;;;4.00;2.05;;;15.80;71.10;;;;;;2052392;28;20062;-95
2021/08/25 00:14:44;;;;;;;3.83;2.00;;;15.70;71.10;;;;;;2049585;28;20490;-95
2021/08/25 00:15:46;;;;;;;4.40;2.08;;;15.70;71.20;;;;;;2042368;28;20031;-95
2021/08/25 00:16:47;;;;;;;3.90;2.03;;;15.70;71.20;;;;;;2049532;28;20063;-96
2021/08/25 00:17:48;;;;;;;4.25;2.08;;;15.70;71.30;;;;;;2057804;28;20066;-95
2021/08/25 00:18:48;;;;;;;4.30;2.10;;;15.70;71.30;;;;;;2049281;28;20039;-96
2021/08/25 00:19:49;;;;;;;5.22;2.38;;;15.70;71.40;;;;;;2050503;28;20103;-95
2021/08/25 00:20:50;;;;;;;4.50;2.00;;;15.70;71.50;;;;;;2061851;28;20539;-96
2021/08/25 00:21:51;;;;;;;4.55;2.53;;;15.70;71.50;;;;;;2057283;28;20105;-94
2021/08/25 00:22:51;;;;;;;3.72;2.00;;;15.70;71.60;;;;;;2050075;28;20505;-95
2021/08/25 00:23:52;;;;;;;4.32;2.05;;;15.60;71.60;;;;;;2045998;28;20096;-95
2021/08/25 00:24:54;;;;;;;3.78;2.10;;;15.60;71.60;;;;;;2055234;28;20043;-94
2021/08/25 00:25:56;;;;;;;3.78;2.10;;;15.60;71.70;;;;;;2044216;28;20035;-95
2021/08/25 00:26:56;;;;;;;3.67;2.13;;;15.60;71.80;;;;;;2065888;28;20046;-95
2021/08/25 00:27:57;;;;;;;3.97;2.08;;;15.50;71.90;;;;;;2060795;28;20034;-94
2021/08/25 00:28:58;;;;;;;4.88;2.45;;;15.50;71.90;;;;;;2051861;28;20051;-95
2021/08/25 00:30:02;;;;;;;3.78;2.10;;;15.60;72.00;;;;;;2045568;29;20031;-95
2021/08/25 00:31:03;;;;;;;4.07;2.20;;;15.50;72.00;;;;;;2053968;28;20085;-95
2021/08/25 00:32:04;;;;;;;5.00;2.67;;;15.50;72.70;;;;;;2046114;29;20032;-95
2021/08/25 00:33:05;;;;;;;4.40;2.00;;;15.50;72.10;;;;;;2068630;28;20046;-96
2021/08/25 00:34:07;;;;;;;3.92;1.75;;;15.50;72.10;;;;;;2063378;28;20039;-95
2021/08/25 00:35:08;;;;;;;5.72;2.05;;;15.50;72.10;;;;;;2049934;28;20130;-96
2021/08/25 00:36:09;;;;;;;4.68;2.00;;;15.50;72.20;;;;;;2062014;28;20062;-95
2021/08/25 00:37:10;;;;;;;4.32;2.33;;;15.50;72.30;;;;;;2055815;28;20472;-94
2021/08/25 00:38:11;;;;;;;4.97;2.33;;;15.50;72.30;;;;;;2042123;29;20051;-96
2021/08/25 00:39:11;;;;;;;4.88;2.30;;;15.50;72.30;;;;;;2046026;28;20032;-95
2021/08/25 00:40:12;;;;;;;4.22;2.00;;;15.50;72.30;;;;;;2049740;29;20046;-94
2021/08/25 00:41:13;;;;;;;3.95;2.13;;;15.60;72.40;;;;;;2064042;28;20049;-94
2021/08/25 00:42:16;;;;;;;4.15;2.10;;;15.50;72.40;;;;;;2066521;28;20062;-95
2021/08/25 00:43:16;;;;;;;4.28;2.00;;;15.60;72.50;;;;;;2050097;28;20043;-95
2021/08/25 00:44:17;;;;;;;4.00;2.03;;;15.50;72.40;;;;;;2040273;29;20126;-94
2021/08/25 00:45:18;;;;;;;5.38;2.60;;;15.50;72.50;;;;;;2041481;28;20609;-94
2021/08/25 00:46:19;;;;;;;4.03;2.25;;;15.50;72.50;;;;;;2049444;29;20421;-96
2021/08/25 00:47:20;;;;;;;4.10;2.38;;;15.50;72.60;;;;;;2041928;29;20062;-95
2021/08/25 00:48:20;;;;;;;4.03;2.28;;;15.50;72.60;;;;;;2054384;28;20612;-96
2021/08/25 00:49:21;;;;;;;4.60;2.33;;;15.50;72.70;;;;;;2061269;28;20046;-96
2021/08/25 00:50:22;;;;;;;5.15;2.47;;;15.50;72.70;;;;;;2051417;28;20032;-96
2021/08/25 00:51:23;;;;;;;4.90;2.17;;;15.50;72.70;;;;;;2057523;29;20042;-96
2021/08/25 00:52:24;;;;;;;3.75;2.10;;;15.50;72.80;;;;;;2063065;28;20103;-96
2021/08/25 00:53:25;;;;;;;4.03;2.15;;;15.50;72.90;;;;;;2065887;28;20034;-95
2021/08/25 00:54:26;;;;;;;4.25;2.40;;;15.50;72.90;;;;;;2064156;28;20099;-95
2021/08/25 00:55:26;;;;;;;4.57;2.20;;;15.50;72.90;;;;;;2070310;28;20073;-95
2021/08/25 00:56:27;;;;;;;4.20;2.28;;;15.50;73.00;;;;;;2062766;28;20035;-95
2021/08/25 00:57:28;;;;;;;5.25;2.47;;;15.50;73.10;;;;;;2054562;28;20069;-94
2021/08/25 00:58:29;;;;;;;4.43;2.35;;;15.50;73.10;;;;;;2063793;28;20035;-96
2021/08/25 00:59:32;;;;;;;4.28;2.13;;;15.50;73.10;;;;;;2056796;28;20067;-95
2021/08/25 01:00:36;;;;;;;5.00;2.38;;;15.50;73.10;;;;;;2048396;28;20080;-95
2021/08/25 01:01:59;;;;;;;6.03;2.35;;;15.50;73.10;;;;;;2064239;28;20027;-95
2021/08/25 01:03:18;;;;;;;4.28;2.25;;;15.50;73.10;;;;;;2065930;28;20046;-96
2021/08/25 01:04:34;;;;;;;5.30;1.92;;;15.50;73.10;;;;;;2055661;28;20040;-96
2021/08/25 01:05:39;;;;;;;4.72;2.30;;;15.50;73.00;;;;;;2057506;28;20034;-95
2021/08/25 01:06:41;;;;;;;4.45;2.20;;;15.50;73.00;;;;;;2057475;28;20039;-95
2021/08/25 01:07:43;;;;;;;3.17;1.90;;;15.50;73.10;;;;;;2062117;28;20034;-95
2021/08/25 01:08:44;;;;;;;4.30;2.10;;;15.50;73.10;;;;;;2065702;28;20129;-96
2021/08/25 01:09:45;;;;;;;4.13;2.10;;;15.50;73.10;;;;;;2047968;29;20372;-96
2021/08/25 01:10:45;;;;;;;3.90;2.20;;;15.50;73.10;;;;;;2047490;29;20116;-95
2021/08/25 01:11:49;;;;;;;3.65;2.00;;;15.50;73.20;;;;;;2051549;28;20024;-96
2021/08/25 01:12:50;;;;;;;4.22;2.20;;;15.40;73.80;;;;;;2059443;28;20019;-94
2021/08/25 01:13:51;;;;;;;4.10;2.25;;;15.50;73.30;;;;;;2067891;28;20011;-96
2021/08/25 01:14:51;;;;;;;3.85;2.00;;;15.50;73.30;;;;;;2070214;28;20027;-93
2021/08/25 01:15:52;;;;;;;3.80;2.13;;;15.50;73.40;;;;;;2067303;28;20090;-93
2021/08/25 01:16:53;;;;;;;3.67;1.88;;;15.50;73.40;;;;;;2075295;28;20022;-94
2021/08/25 01:17:54;;;;;;;5.45;2.30;;;15.40;73.40;;;;;;2075287;28;20038;-94
2021/08/25 01:18:58;;;;;;;5.65;2.50;;;15.50;73.40;;;;;;2069899;28;20038;-94
2021/08/25 01:20:06;;;;;;;3.97;2.00;;;15.50;73.40;;;;;;2075810;28;20044;-95
2021/08/25 01:21:09;;;;;;;4.30;1.80;;;15.50;73.40;;;;;;2083294;28;20034;-95
2021/08/25 01:22:10;;;;;;;3.40;2.00;;;15.50;73.40;;;;;;2074955;28;20029;-96
2021/08/25 01:23:12;;;;;;;3.85;2.10;;;15.40;73.40;;;;;;2058736;28;20079;-90
2021/08/25 01:24:15;;;;;;;4.07;2.00;;;15.40;73.40;;;;;;2060124;28;20118;-93
2021/08/25 01:25:16;;;;;;;4.68;2.13;;;15.40;73.50;;;;;;2051563;28;20019;-91
2021/08/25 01:26:17;;;;;;;4.00;2.00;;;15.40;73.50;;;;;;2051349;28;20020;-90
2021/08/25 01:27:19;;;;;;;3.85;2.03;;;15.40;73.60;;;;;;2059601;28;20034;-91
2021/08/25 01:28:28;;;;;;;3.78;1.83;;;15.40;74.20;;;;;;2064545;28;20035;-95
2021/08/25 01:29:31;;;;;;;3.85;2.00;;;15.40;73.60;;;;;;2067413;28;20057;-96
2021/08/25 01:30:34;;;;;;;4.65;2.13;;;15.40;73.70;;;;;;2061756;28;20038;-94
2021/08/25 01:31:35;;;;;;;4.38;2.30;;;15.40;73.60;;;;;;2068663;28;20031;-96
2021/08/25 01:32:40;;;;;;;4.50;2.30;;;15.40;73.60;;;;;;2068510;28;20035;-95
2021/08/25 01:33:41;;;;;;;3.65;1.90;;;15.40;73.70;;;;;;2073985;28;20042;-95
2021/08/25 01:34:56;;;;;;;3.88;2.05;;;15.40;73.80;;;;;;2066509;28;20620;-95
2021/08/25 01:35:57;;;;;;;3.22;1.80;;;15.40;73.80;;;;;;2070329;28;20066;-95
2021/08/25 01:36:58;;;;;;;4.15;2.25;;;15.40;73.80;;;;;;2061180;28;20034;-95
2021/08/25 01:38:00;;;;;;;3.58;1.80;;;15.40;73.90;;;;;;2060532;28;20046;-95
2021/08/25 01:39:01;;;;;;;3.33;1.90;;;15.30;73.90;;;;;;2060888;28;20089;-95
2021/08/25 01:40:03;;;;;;;4.32;2.40;;;15.30;74.10;;;;;;2059935;28;20034;-96
2021/08/25 01:41:04;;;;;;;4.50;2.20;;;15.30;74.10;;;;;;2051349;28;20038;-96
2021/08/25 01:42:05;;;;;;;4.22;2.15;;;15.30;74.20;;;;;;2066786;28;20121;-95
2021/08/25 01:43:07;;;;;;;4.35;2.10;;;15.30;74.20;;;;;;2066010;28;20050;-95
2021/08/25 01:44:08;;;;;;;4.97;2.13;;;15.30;74.30;;;;;;2058651;28;20023;-96
2021/08/25 01:45:09;;;;;;;4.05;2.10;;;15.20;74.30;;;;;;2051334;28;20043;-95
2021/08/25 01:46:21;;;;;;;4.43;1.90;;;15.30;74.40;;;;;;2058749;28;20064;-95
2021/08/25 01:47:25;;;;;;;3.92;1.90;;;15.30;74.40;;;;;;2047637;28;20145;-96
2021/08/25 01:48:26;;;;;;;6.03;2.55;;;15.20;74.40;;;;;;2055412;28;20083;-95
2021/08/25 01:49:26;;;;;;;3.80;2.13;;;15.20;74.40;;;;;;2050678;28;20035;-95
2021/08/25 01:50:28;;;;;;;3.70;2.17;;;15.20;74.40;;;;;;2050842;28;20061;-95
2021/08/25 01:51:29;;;;;;;4.70;2.30;;;15.20;74.50;;;;;;2058641;28;20023;-96
2021/08/25 01:52:30;;;;;;;4.63;2.40;;;15.20;74.50;;;;;;2049948;28;20067;-95
2021/08/25 01:53:30;;;;;;;6.45;2.40;;;15.20;74.50;;;;;;2050804;28;20047;-95
2021/08/25 01:54:31;;;;;;;4.15;2.40;;;15.20;75.20;;;;;;2059353;28;20030;-95
2021/08/25 01:55:32;;;;;;;6.13;2.33;;;15.20;74.60;;;;;;2050749;29;20028;-95
2021/08/25 01:56:33;;;;;;;3.88;2.17;;;15.20;74.60;;;;;;2058833;28;20058;-94
2021/08/25 01:57:34;;;;;;;4.00;2.10;;;15.20;74.70;;;;;;2066517;28;20047;-95
2021/08/25 01:58:34;;;;;;;4.25;2.22;;;15.20;74.80;;;;;;2054776;28;20450;-94
2021/08/25 01:59:36;;;;;;;4.55;2.20;;;15.20;74.80;;;;;;2058263;28;20042;-94
2021/08/25 02:00:37;;;;;;;4.10;2.22;;;15.20;74.90;;;;;;2060321;28;20034;-95
2021/08/25 02:01:38;;;;;;;3.78;2.03;;;15.20;74.90;;;;;;2063703;28;20070;-94
2021/08/25 02:02:39;;;;;;;4.65;2.33;;;15.20;74.90;;;;;;2065948;28;20066;-95
2021/08/25 02:03:40;;;;;;;4.75;2.60;;;15.20;75.00;;;;;;2050330;29;20039;-95
2021/08/25 02:04:40;;;;;;;4.57;2.40;;;15.20;75.10;;;;;;2050348;28;20035;-94
2021/08/25 02:05:41;;;;;;;4.88;2.30;;;15.20;75.10;;;;;;2066601;28;20041;-95
2021/08/25 02:06:42;;;;;;;4.63;2.53;;;15.20;75.10;;;;;;2050395;29;20071;-94
2021/08/25 02:07:43;;;;;;;3.42;2.10;;;15.20;75.20;;;;;;2050240;29;20113;-95
2021/08/25 02:08:43;;;;;;;3.35;2.05;;;15.10;75.10;;;;;;2058270;28;20433;-94
2021/08/25 02:09:45;;;;;;;4.28;2.22;;;15.10;75.20;;;;;;2058074;28;20413;-95
2021/08/25 02:10:46;;;;;;;4.03;2.20;;;15.10;75.20;;;;;;2058552;28;20493;-95
2021/08/25 02:11:47;;;;;;;3.63;2.03;;;15.10;75.20;;;;;;2050237;28;20529;-94
2021/08/25 02:12:48;;;;;;;3.95;2.22;;;15.10;75.20;;;;;;2058173;28;20036;-94
2021/08/25 02:13:48;;;;;;;5.20;2.60;;;15.10;75.20;;;;;;2057652;28;20038;-94
2021/08/25 02:14:49;;;;;;;4.30;2.20;;;15.10;75.30;;;;;;2050333;29;20034;-94
2021/08/25 02:15:50;;;;;;;4.93;2.40;;;15.10;75.30;;;;;;2058342;28;20042;-94
2021/08/25 02:16:50;;;;;;;4.85;2.50;;;15.10;75.40;;;;;;2049922;29;20039;-95
2021/08/25 02:17:51;;;;;;;4.78;2.20;;;15.10;75.50;;;;;;2057973;28;20031;-95
2021/08/25 02:18:52;;;;;;;3.95;2.00;;;15.00;75.40;;;;;;2050791;28;20091;-94
2021/08/25 02:19:52;;;;;;;4.45;2.10;;;15.00;75.40;;;;;;2050080;29;20039;-96
2021/08/25 02:20:54;;;;;;;3.72;2.20;;;15.10;75.50;;;;;;2042022;28;20042;-94
2021/08/25 02:21:54;;;;;;;4.72;2.20;;;15.00;75.40;;;;;;2049908;28;20090;-95
2021/08/25 02:22:55;;;;;;;4.40;2.30;;;15.00;75.40;;;;;;2050423;28;20043;-94
2021/08/25 02:23:56;;;;;;;5.40;2.40;;;15.00;75.50;;;;;;2058471;28;20038;-94
2021/08/25 02:24:56;;;;;;;4.82;2.60;;;15.00;75.40;;;;;;2058599;28;20110;-94
2021/08/25 02:25:57;;;;;;;4.70;2.28;;;15.00;75.40;;;;;;2042555;28;20054;-95
2021/08/25 02:26:58;;;;;;;5.32;2.50;;;15.00;75.40;;;;;;2058422;28;20054;-96
2021/08/25 02:27:58;;;;;;;4.97;2.45;;;15.00;75.40;;;;;;2066552;28;20043;-96
2021/08/25 02:28:59;;;;;;;5.03;2.47;;;15.00;75.40;;;;;;2065522;28;20042;-95
2021/08/25 02:30:00;;;;;;;4.18;2.45;;;15.00;75.40;;;;;;2074425;28;20397;-96
2021/08/25 02:31:00;;;;;;;4.43;2.40;;;15.00;75.40;;;;;;2066193;28;20038;-95
2021/08/25 02:32:01;;;;;;;5.10;2.72;;;15.00;75.30;;;;;;2054780;28;20101;-95
2021/08/25 02:33:03;;;;;;;4.22;2.40;;;15.00;75.30;;;;;;2042989;29;20047;-95
2021/08/25 02:34:04;;;;;;;4.50;2.33;;;15.00;75.30;;;;;;2050623;28;20114;-95
2021/08/25 02:35:05;;;;;;;4.63;2.70;;;15.00;75.30;;;;;;2058440;28;20035;-95
2021/08/25 02:36:06;;;;;;;4.70;2.50;;;15.00;75.30;;;;;;2054347;28;20051;-94
2021/08/25 02:37:07;;;;;;;4.50;2.30;;;15.00;75.20;;;;;;2038706;28;20036;-95
2021/08/25 02:38:10;;;;;;;4.80;2.30;;;15.10;75.80;;;;;;2042759;29;20062;-94
2021/08/25 02:39:11;;;;;;;4.82;2.50;;;15.00;75.10;;;;;;2034486;29;20051;-94
2021/08/25 02:40:12;;;;;;;4.32;2.45;;;15.10;75.10;;;;;;2042139;29;20066;-94
2021/08/25 02:41:15;;;;;;;4.35;2.20;;;15.10;75.10;;;;;;2041952;28;20071;-94
2021/08/25 02:42:16;;;;;;;4.50;2.33;;;15.10;75.00;;;;;;2054303;28;20416;-94
2021/08/25 02:43:17;;;;;;;4.85;2.47;;;15.10;75.00;;;;;;2050293;29;20036;-93
2021/08/25 02:44:17;;;;;;;5.90;2.55;;;15.10;75.00;;;;;;2042306;29;20074;-95
2021/08/25 02:45:18;;;;;;;3.80;2.28;;;15.00;75.00;;;;;;2042062;29;20031;-94
2021/08/25 02:46:20;;;;;;;5.13;2.75;;;15.00;75.10;;;;;;2042079;29;20087;-95
2021/08/25 02:47:20;;;;;;;4.45;2.35;;;15.00;75.30;;;;;;2048106;28;20131;-95
2021/08/25 02:48:21;;;;;;;4.45;2.20;;;15.00;75.30;;;;;;2040411;29;20106;-94
2021/08/25 02:49:22;;;;;;;4.05;2.10;;;15.00;75.40;;;;;;2026627;29;20507;-95
2021/08/25 02:50:23;;;;;;;4.22;2.15;;;15.00;75.50;;;;;;2042245;29;20130;-95
2021/08/25 02:51:24;;;;;;;4.05;2.17;;;15.00;75.60;;;;;;2036008;29;20036;-95
2021/08/25 02:52:24;;;;;;;4.38;2.30;;;15.00;75.70;;;;;;2045994;29;20185;-96
2021/08/25 02:53:25;;;;;;;4.50;2.22;;;14.90;75.60;;;;;;2034426;29;20443;-95
2021/08/25 02:54:26;;;;;;;4.50;2.38;;;14.90;75.60;;;;;;2034525;29;20200;-96
2021/08/25 02:55:26;;;;;;;4.45;2.30;;;14.90;75.70;;;;;;2042250;29;20032;-94
2021/08/25 02:56:27;;;;;;;4.68;2.55;;;14.90;75.80;;;;;;2038959;29;20071;-95
2021/08/25 02:57:28;;;;;;;4.25;2.25;;;14.90;75.90;;;;;;2042502;28;20083;-94
2021/08/25 02:58:28;;;;;;;4.18;2.20;;;14.90;76.00;;;;;;2053002;28;20060;-94
2021/08/25 02:59:29;;;;;;;4.38;2.10;;;14.90;76.10;;;;;;2058377;28;20042;-95
2021/08/25 03:00:30;;;;;;;3.60;2.08;;;14.80;76.00;;;;;;2068084;28;20098;-95
2021/08/25 03:01:31;;;;;;;4.00;2.00;;;14.80;76.00;;;;;;2069466;28;20031;-95
2021/08/25 03:02:32;;;;;;;4.18;2.30;;;14.80;76.10;;;;;;2051802;29;20031;-94
2021/08/25 03:03:32;;;;;;;4.10;2.13;;;14.80;76.10;;;;;;2059637;29;20093;-94
2021/08/25 03:04:33;;;;;;;4.63;2.40;;;14.80;76.10;;;;;;2052195;28;20030;-94
2021/08/25 03:05:34;;;;;;;3.70;2.13;;;14.80;76.10;;;;;;2067255;28;20094;-94
2021/08/25 03:06:35;;;;;;;3.90;2.05;;;14.80;76.00;;;;;;2055555;28;20028;-94
2021/08/25 03:07:35;;;;;;;5.00;2.20;;;14.80;76.00;;;;;;2036446;29;20025;-95
2021/08/25 03:08:37;;;;;;;4.00;2.10;;;14.80;76.00;;;;;;2041088;29;20095;-94
2021/08/25 03:09:38;;;;;;;4.05;2.30;;;14.80;76.10;;;;;;2051493;29;20032;-94
2021/08/25 03:10:39;;;;;;;4.50;2.40;;;14.80;76.00;;;;;;2047478;29;20036;-95
2021/08/25 03:11:39;;;;;;;4.68;2.47;;;14.80;76.00;;;;;;2045968;28;20082;-94
2021/08/25 03:12:40;;;;;;;3.95;2.30;;;14.80;76.00;;;;;;2050019;28;20050;-94
2021/08/25 03:13:41;;;;;;;4.00;2.00;;;14.80;76.00;;;;;;2057531;28;20177;-95
2021/08/25 03:14:42;;;;;;;4.90;2.08;;;14.80;76.00;;;;;;2057778;28;20121;-94
2021/08/25 03:15:43;;;;;;;5.15;2.47;;;14.80;76.00;;;;;;2049885;29;20024;-94
2021/08/25 03:16:43;;;;;;;3.95;2.20;;;14.80;75.90;;;;;;2042237;29;20589;-95
2021/08/25 03:17:44;;;;;;;3.97;2.10;;;14.80;75.90;;;;;;2041855;29;20095;-94
2021/08/25 03:18:45;;;;;;;5.03;2.45;;;14.70;75.90;;;;;;2041735;29;20063;-95
2021/08/25 03:19:46;;;;;;;4.57;2.60;;;14.70;75.80;;;;;;2050216;28;20068;-94
2021/08/25 03:20:46;;;;;;;4.70;2.50;;;14.70;75.80;;;;;;2049150;28;20042;-94
2021/08/25 03:21:47;;;;;;;4.97;2.50;;;14.70;75.90;;;;;;2050182;29;20078;-95
2021/08/25 03:22:48;;;;;;;5.50;2.22;;;14.70;75.90;;;;;;2050071;28;20503;-94
2021/08/25 03:23:49;;;;;;;3.70;2.00;;;14.70;76.00;;;;;;2042082;29;20449;-95
2021/08/25 03:24:49;;;;;;;4.78;2.50;;;14.70;76.00;;;;;;2054306;28;20031;-95
2021/08/25 03:25:50;;;;;;;4.88;2.67;;;14.70;76.00;;;;;;2057470;28;20150;-94
2021/08/25 03:26:51;;;;;;;4.70;2.30;;;14.70;76.00;;;;;;2057861;28;20046;-95
2021/08/25 03:27:52;;;;;;;3.92;2.13;;;14.70;76.10;;;;;;2049698;29;20050;-94
2021/08/25 03:28:53;;;;;;;4.53;2.38;;;14.70;76.10;;;;;;2046339;29;20040;-95
2021/08/25 03:29:53;;;;;;;3.75;2.10;;;14.70;76.20;;;;;;2044758;29;20585;-94
2021/08/25 03:30:57;;;;;;;4.20;2.10;;;14.70;76.90;;;;;;2048938;29;20458;-94
2021/08/25 03:31:57;;;;;;;3.80;2.10;;;14.70;76.30;;;;;;2042133;29;20075;-94
2021/08/25 03:33:03;;;;;;;4.50;2.25;;;14.70;76.40;;;;;;2034042;29;20475;-94
2021/08/25 03:34:04;;;;;;;4.20;2.17;;;14.60;76.40;;;;;;2036698;29;20507;-94
2021/08/25 03:35:05;;;;;;;4.50;2.40;;;14.70;76.50;;;;;;2050562;28;20059;-94
2021/08/25 03:36:06;;;;;;;4.53;2.20;;;14.60;76.50;;;;;;2053297;28;20117;-95
2021/08/25 03:37:07;;;;;;;3.85;2.17;;;14.60;76.50;;;;;;2050004;28;20118;-95
2021/08/25 03:38:07;;;;;;;3.97;2.20;;;14.60;76.60;;;;;;2049422;28;20039;-94
2021/08/25 03:39:08;;;;;;;4.90;2.63;;;14.60;76.70;;;;;;2041674;29;20071;-94
2021/08/25 03:40:09;;;;;;;6.00;2.35;;;14.60;76.80;;;;;;2049380;29;20043;-94
2021/08/25 03:41:10;;;;;;;4.28;2.08;;;14.60;76.80;;;;;;2041089;28;20051;-94
2021/08/25 03:42:11;;;;;;;4.30;2.45;;;14.60;76.80;;;;;;2049417;29;20043;-96
2021/08/25 03:43:11;;;;;;;5.57;2.10;;;14.60;76.90;;;;;;2057629;28;20130;-95
2021/08/25 03:44:12;;;;;;;4.80;2.40;;;14.50;76.90;;;;;;2055927;28;20452;-94
2021/08/25 03:45:13;;;;;;;3.90;2.15;;;14.50;77.00;;;;;;2049396;29;20039;-94
2021/08/25 03:46:14;;;;;;;4.35;2.22;;;14.50;77.00;;;;;;2049824;28;20043;-94
2021/08/25 03:47:15;;;;;;;4.15;2.28;;;14.50;77.10;;;;;;2049373;28;20036;-94
2021/08/25 03:48:16;;;;;;;4.18;2.10;;;14.50;77.20;;;;;;2049532;28;20039;-94
2021/08/25 03:49:17;;;;;;;4.32;2.30;;;14.50;77.30;;;;;;2041414;29;20070;-94
2021/08/25 03:50:18;;;;;;;3.90;2.30;;;14.50;77.30;;;;;;2057615;28;20600;-94
2021/08/25 03:51:18;;;;;;;4.60;2.13;;;14.40;77.30;;;;;;2069732;28;20133;-95
2021/08/25 03:52:19;;;;;;;5.07;2.28;;;14.40;77.40;;;;;;2057101;28;20042;-94
2021/08/25 03:53:20;;;;;;;4.60;2.65;;;14.50;77.50;;;;;;2057082;28;20030;-95
2021/08/25 03:54:20;;;;;;;5.25;2.58;;;14.40;77.50;;;;;;2041553;29;20036;-95
2021/08/25 03:55:22;;;;;;;4.63;2.33;;;14.40;77.60;;;;;;2049652;28;20051;-94
2021/08/25 03:56:23;;;;;;;4.20;2.15;;;14.40;77.60;;;;;;2057502;28;20039;-94
2021/08/25 03:57:24;;;;;;;4.25;2.47;;;14.40;77.70;;;;;;2057988;28;20043;-94
2021/08/25 03:58:24;;;;;;;4.82;2.30;;;14.30;77.70;;;;;;2066156;28;20065;-94
2021/08/25 03:59:25;;;;;;;4.85;2.60;;;14.30;77.80;;;;;;2057747;28;20130;-94
2021/08/25 04:00:26;;;;;;;5.13;2.40;;;14.30;77.80;;;;;;2044134;28;20406;-93
2021/08/25 04:01:27;;;;;;;4.85;2.33;;;14.30;77.90;;;;;;2049586;28;20541;-94
2021/08/25 04:02:27;;;;;;;5.60;2.60;;;14.30;77.90;;;;;;2049715;28;20135;-94
2021/08/25 04:03:28;;;;;;;4.22;2.30;;;14.30;77.90;;;;;;2059067;28;20039;-94
2021/08/25 04:04:29;;;;;;;3.63;2.03;;;14.30;77.90;;;;;;2049496;29;20389;-95
2021/08/25 04:05:29;;;;;;;4.30;2.13;;;14.30;77.90;;;;;;2041832;28;20439;-95
2021/08/25 04:06:30;;;;;;;4.85;2.30;;;14.30;77.90;;;;;;2057417;28;20054;-93
2021/08/25 04:07:31;;;;;;;4.22;2.05;;;14.30;78.00;;;;;;2057311;28;20118;-94
2021/08/25 04:08:31;;;;;;;4.70;2.22;;;14.20;78.00;;;;;;2045307;29;20039;-94
2021/08/25 04:09:32;;;;;;;4.07;1.92;;;14.20;78.10;;;;;;2033762;29;20135;-95
2021/08/25 04:10:33;;;;;;;4.25;2.30;;;14.20;78.20;;;;;;2050210;28;20054;-95
2021/08/25 04:11:34;;;;;;;4.55;2.30;;;14.20;78.30;;;;;;2065934;28;20035;-94
2021/08/25 04:12:35;;;;;;;5.18;2.42;;;14.10;78.30;;;;;;2052362;28;20031;-96
2021/08/25 04:13:35;;;;;;;4.40;2.30;;;14.10;78.40;;;;;;2055275;28;20457;-95
2021/08/25 04:14:36;;;;;;;4.15;2.40;;;14.10;78.40;;;;;;2045373;28;20043;-94
2021/08/25 04:15:40;;;;;;;4.68;2.45;;;14.10;78.50;;;;;;2033958;29;20040;-95
2021/08/25 04:16:40;;;;;;;4.75;2.40;;;14.10;78.60;;;;;;2042489;28;20032;-95
2021/08/25 04:17:41;;;;;;;4.75;2.22;;;14.10;78.60;;;;;;2060867;28;20097;-95
2021/08/25 04:18:42;;;;;;;4.03;2.25;;;14.10;78.60;;;;;;2041475;29;20070;-96
2021/08/25 04:19:43;;;;;;;4.38;2.20;;;14.10;78.60;;;;;;2049179;28;20035;-95
2021/08/25 04:20:43;;;;;;;5.03;2.15;;;14.10;78.60;;;;;;2058348;28;20030;-94
2021/08/25 04:21:44;;;;;;;4.18;1.95;;;14.10;78.60;;;;;;2060016;28;20046;-95
2021/08/25 04:22:45;;;;;;;4.20;2.30;;;14.10;78.60;;;;;;2046224;29;20039;-95
2021/08/25 04:23:45;;;;;;;4.85;2.60;;;14.10;78.60;;;;;;2043144;28;20069;-95
2021/08/25 04:24:46;;;;;;;4.43;2.28;;;14.10;78.60;;;;;;2066586;28;20559;-95
2021/08/25 04:25:47;;;;;;;4.30;2.22;;;14.10;78.60;;;;;;2042754;29;20090;-94
2021/08/25 04:26:47;;;;;;;4.72;2.25;;;14.10;78.70;;;;;;2038199;29;20037;-95
2021/08/25 04:27:48;;;;;;;4.72;2.42;;;14.00;78.70;;;;;;2042222;29;20040;-94
2021/08/25 04:28:49;;;;;;;4.00;2.08;;;14.00;78.80;;;;;;2042257;29;20043;-94
2021/08/25 04:29:50;;;;;;;4.55;2.30;;;14.00;78.80;;;;;;2049520;28;20038;-95
2021/08/25 04:30:51;;;;;;;5.40;2.35;;;14.00;78.80;;;;;;2049345;28;20392;-92
2021/08/25 04:31:52;;;;;;;4.22;2.30;;;14.00;78.90;;;;;;2071926;28;20030;-93
2021/08/25 04:32:52;;;;;;;4.20;2.28;;;14.00;78.90;;;;;;2065579;28;20041;-93
2021/08/25 04:33:53;;;;;;;4.78;2.38;;;14.00;78.90;;;;;;2049655;28;20045;-92
2021/08/25 04:34:54;;;;;;;4.25;2.30;;;14.00;79.00;;;;;;2057386;28;20039;-92
2021/08/25 04:35:55;;;;;;;4.63;2.40;;;14.00;79.00;;;;;;2051582;28;20223;-95
2021/08/25 04:36:55;;;;;;;4.00;2.10;;;14.00;79.00;;;;;;2073943;28;20542;-93
2021/08/25 04:37:56;;;;;;;3.97;1.95;;;14.00;79.10;;;;;;2054238;28;20070;-94
2021/08/25 04:38:57;;;;;;;4.78;2.65;;;14.00;79.20;;;;;;2041159;29;20036;-94
2021/08/25 04:39:57;;;;;;;4.15;2.13;;;14.00;79.20;;;;;;2043974;29;20035;-93
2021/08/25 04:40:58;;;;;;;4.28;2.30;;;14.00;79.20;;;;;;2034472;29;20044;-93
2021/08/25 04:41:59;;;;;;;4.20;2.45;;;14.00;79.20;;;;;;2033396;28;20041;-95
2021/08/25 04:43:00;;;;;;;5.55;2.70;;;14.00;79.30;;;;;;2042273;28;20048;-93
2021/08/25 04:44:01;;;;;;;4.78;2.30;;;14.00;79.30;;;;;;2048866;28;20126;-93
2021/08/25 04:45:03;;;;;;;3.90;2.38;;;14.00;79.40;;;;;;2055703;28;20591;-93
2021/08/25 04:46:04;;;;;;;4.13;2.20;;;14.00;79.40;;;;;;2047981;28;20035;-91
2021/08/25 04:47:04;;;;;;;4.47;2.28;;;13.90;79.40;;;;;;2061234;28;20022;-93
2021/08/25 04:48:05;;;;;;;4.03;2.10;;;14.00;79.50;;;;;;2065102;28;20042;-93
2021/08/25 04:49:06;;;;;;;5.43;2.70;;;13.90;79.50;;;;;;2048514;28;20052;-93
2021/08/25 04:50:07;;;;;;;4.07;2.10;;;13.90;79.50;;;;;;2064975;28;20133;-96
2021/08/25 04:51:10;;;;;;;5.50;2.78;;;13.90;79.60;;;;;;2057724;28;20090;-93
2021/08/25 04:52:10;;;;;;;4.18;2.20;;;13.90;79.70;;;;;;2049610;28;20039;-94
2021/08/25 04:53:11;;;;;;;5.15;2.45;;;13.90;79.70;;;;;;2053545;28;20382;-94
2021/08/25 04:54:12;;;;;;;4.32;2.38;;;13.90;79.80;;;;;;2053418;28;20488;-91
2021/08/25 04:55:12;;;;;;;4.35;2.20;;;13.90;79.80;;;;;;2051617;28;20032;-94
2021/08/25 04:56:13;;;;;;;5.78;2.50;;;13.90;79.80;;;;;;2049196;28;20066;-96
2021/08/25 04:57:14;;;;;;;4.22;2.28;;;13.90;79.90;;;;;;2049573;28;20497;-94
2021/08/25 04:58:14;;;;;;;4.40;2.40;;;13.90;79.90;;;;;;2040821;29;20035;-93
2021/08/25 04:59:15;;;;;;;5.05;2.70;;;13.90;80.60;;;;;;2045664;28;20123;-94
2021/08/25 05:00:16;;;;;;;5.00;2.70;;;13.90;80.00;;;;;;2056425;28;20037;-94
2021/08/25 05:01:17;;;;;;;5.55;2.13;;;13.90;80.00;;;;;;2060214;28;20404;-93
2021/08/25 05:02:17;;;;;;;4.88;2.50;;;13.90;80.00;;;;;;2060128;28;20121;-94
2021/08/25 05:03:18;;;;;;;4.00;2.10;;;13.90;80.10;;;;;;2052470;28;20054;-94
2021/08/25 05:04:19;;;;;;;4.88;2.42;;;13.90;80.10;;;;;;2052607;28;20054;-94
2021/08/25 05:05:20;;;;;;;4.78;2.40;;;13.90;80.10;;;;;;2063371;28;20448;-94
2021/08/25 05:06:21;;;;;;;4.82;2.40;;;13.90;80.10;;;;;;2071750;28;20065;-94
2021/08/25 05:07:22;;;;;;;4.78;2.20;;;13.90;80.10;;;;;;2062036;28;20039;-94
2021/08/25 05:08:23;;;;;;;4.75;2.38;;;13.90;80.10;;;;;;2062114;28;20042;-94
2021/08/25 05:09:24;;;;;;;4.55;2.13;;;13.90;80.10;;;;;;2058696;28;20110;-94
2021/08/25 05:10:24;;;;;;;6.30;2.53;;;13.90;80.10;;;;;;2053601;29;20031;-94
2021/08/25 05:11:25;;;;;;;3.92;2.20;;;13.90;80.00;;;;;;2038749;29;20055;-94
2021/08/25 05:12:26;;;;;;;4.72;2.30;;;13.90;80.10;;;;;;2046348;28;20042;-94
2021/08/25 05:13:27;;;;;;;3.83;2.20;;;13.90;80.00;;;;;;2062519;28;20042;-94
2021/08/25 05:14:27;;;;;;;4.47;2.10;;;13.90;80.00;;;;;;2061165;28;20038;-94
2021/08/25 05:15:28;;;;;;;3.78;2.00;;;14.00;80.00;;;;;;2069761;28;20493;-94
2021/08/25 05:16:29;;;;;;;4.40;2.10;;;14.00;80.00;;;;;;2070864;28;20507;-94
2021/08/25 05:17:30;;;;;;;3.92;2.10;;;14.00;80.00;;;;;;2070259;28;20049;-94
2021/08/25 05:18:31;;;;;;;5.32;2.60;;;14.00;80.00;;;;;;2070189;28;20027;-94
2021/08/25 05:19:31;;;;;;;4.00;2.05;;;14.00;80.00;;;;;;2063574;28;20461;-95